Cuddapah, Cuddapah Airport (VOCP)

NameCuddapah Airport
CityCuddapah
CountryIndia
ICAOVOCP
IATACDP
Altitude131 m
CoordinatesGoogle Map
Live Air TrafficLiveATC.net
METARVOCP 160500Z 35005KT 5000 HZ FEW015 SCT100 27/15 Q1016
2018-12-16 05:00:00 Wind: North-Northwest (350°) 2.57 m/s - Visibility: 5000 m - Weather: Haze - Temperature: 27 °C - Dew point: 15 °C - Humidity: 47.8% - Pressure: 1016 hPa

Sorry, no flights used the airport in this database.